International Virtual Aviation Organisation

Russian Federation and Kazakhstan MCD

 

Карточка аэропорта UAAA

Внимание!
Информация на этой странице в стадии наполнения.
Если вы не увидели какой-то информации, или заметили неточность - пожалуйста сообщите нам!
Спасибо!
Команда RU-STAFF
Название аэропортаАлматы
Название аэропорта (англ.)Almaty
Превышение2238 ft. (682.1 m.)
Координаты43°21.072', 77°1.5960000000001'
Высота перехода600
Эшелон переходаFL070
Коды ответчика3501-3517, 3401-3427
Зона ОрВДАлматы РПИ (UAAA)
Данные METARUAAA 282000Z 25003MPS 9999 SCT100 06/01 Q1022 R23R/CLRD65 R23L/1///60 NOSIG
Проноз погоды (TAF)UAAA 281700Z 2818/2918 20003G08MPS 9999 BKN033CB OVC100 TX09/2908Z TN02/2901Z TEMPO 2818/2902 28003MPS 3100 -SHRA BR BECMG 2903/2904 34004MPS SCT050 BKN100 TEMPO 2903/2913 03003G08MPS BECMG 2913/2914 16003MPS 3100 BR FU TEMPO 2913/2918 20003MPS 1500
NOTAMshow/hide NOTAM
AWOS   TABLE

Информация о ВПП

ВПП Длина ВПП (м.) Покрытие Курс ВПП Частота ILS
05L4500Бетон51109.1
23R4500Бетон231111.3
05R4400Асфальтобетон51110.3
23L4400Асфальтобетон231108.1

Диспетчерские позиции

Позывной Наименование органа УВД Частота
UAAA_APPАлматы-Подход124.8
UAAA_TWRАлматы-Вышка119.4
UAAA_GNDАлматы-Руление121.7
UAAA_R_APPАлматы-Круг120.8



Спутниковое изображение